sensor_id;sensor_type;location;lat;lon;timestamp;P1;durP1;ratioP1;P2;durP2;ratioP2
45564;SDS011;31280;40.408;17.282;2022-10-17T00:00:49;14.98;;;11.43;;
45564;SDS011;31280;40.408;17.282;2022-10-17T00:03:15;16.45;;;10.85;;
45564;SDS011;31280;40.408;17.282;2022-10-17T00:05:42;15.82;;;11.00;;
45564;SDS011;31280;40.408;17.282;2022-10-17T00:08:13;15.52;;;10.68;;
45564;SDS011;31280;40.408;17.282;2022-10-17T00:10:40;14.70;;;10.85;;
45564;SDS011;31280;40.408;17.282;2022-10-17T00:13:06;16.63;;;10.55;;
45564;SDS011;31280;40.408;17.282;2022-10-17T00:15:33;12.77;;;9.43;;
45564;SDS011;31280;40.408;17.282;2022-10-17T00:17:59;13.95;;;9.57;;
45564;SDS011;31280;40.408;17.282;2022-10-17T00:20:25;16.73;;;10.55;;
45564;SDS011;31280;40.408;17.282;2022-10-17T00:22:51;18.40;;;10.52;;
45564;SDS011;31280;40.408;17.282;2022-10-17T00:25:17;13.30;;;9.85;;
45564;SDS011;31280;40.408;17.282;2022-10-17T00:30:55;15.23;;;10.70;;
45564;SDS011;31280;40.408;17.282;2022-10-17T00:34:05;16.45;;;11.13;;
45564;SDS011;31280;40.408;17.282;2022-10-17T00:37:25;16.02;;;11.80;;
45564;SDS011;31280;40.408;17.282;2022-10-17T00:39:54;18.23;;;11.13;;
45564;SDS011;31280;40.408;17.282;2022-10-17T00:47:11;15.30;;;11.07;;
45564;SDS011;31280;40.408;17.282;2022-10-17T00:53:49;14.75;;;10.63;;
45564;SDS011;31280;40.408;17.282;2022-10-17T00:57:14;21.33;;;11.48;;
45564;SDS011;31280;40.408;17.282;2022-10-17T01:00:39;15.88;;;10.52;;
45564;SDS011;31280;40.408;17.282;2022-10-17T01:03:23;13.25;;;9.63;;
45564;SDS011;31280;40.408;17.282;2022-10-17T01:07:00;13.90;;;9.70;;
45564;SDS011;31280;40.408;17.282;2022-10-17T01:09:34;12.50;;;9.40;;
45564;SDS011;31280;40.408;17.282;2022-10-17T01:34:49;12.05;;;8.70;;
45564;SDS011;31280;40.408;17.282;2022-10-17T01:37:30;13.00;;;8.75;;
45564;SDS011;31280;40.408;17.282;2022-10-17T01:40:06;15.68;;;9.38;;
45564;SDS011;31280;40.408;17.282;2022-10-17T01:42:40;12.40;;;8.00;;
45564;SDS011;31280;40.408;17.282;2022-10-17T01:45:27;13.57;;;8.75;;
45564;SDS011;31280;40.408;17.282;2022-10-17T01:48:00;14.02;;;8.13;;
45564;SDS011;31280;40.408;17.282;2022-10-17T01:50:31;12.07;;;8.65;;
45564;SDS011;31280;40.408;17.282;2022-10-17T01:53:05;12.00;;;7.82;;
45564;SDS011;31280;40.408;17.282;2022-10-17T01:55:36;11.65;;;7.80;;
45564;SDS011;31280;40.408;17.282;2022-10-17T01:58:09;11.57;;;8.02;;
45564;SDS011;31280;40.408;17.282;2022-10-17T02:00:50;11.75;;;7.50;;
45564;SDS011;31280;40.408;17.282;2022-10-17T02:03:17;12.27;;;8.32;;
45564;SDS011;31280;40.408;17.282;2022-10-17T02:05:44;12.07;;;8.43;;
45564;SDS011;31280;40.408;17.282;2022-10-17T02:08:11;10.38;;;8.13;;
45564;SDS011;31280;40.408;17.282;2022-10-17T02:10:45;12.38;;;8.25;;
45564;SDS011;31280;40.408;17.282;2022-10-17T02:16:26;11.88;;;8.35;;
45564;SDS011;31280;40.408;17.282;2022-10-17T02:21:50;11.13;;;8.02;;
45564;SDS011;31280;40.408;17.282;2022-10-17T02:30:02;12.70;;;8.55;;
45564;SDS011;31280;40.408;17.282;2022-10-17T02:35:00;12.38;;;8.00;;
45564;SDS011;31280;40.408;17.282;2022-10-17T02:37:28;9.23;;;7.28;;
45564;SDS011;31280;40.408;17.282;2022-10-17T02:39:56;12.38;;;7.63;;
45564;SDS011;31280;40.408;17.282;2022-10-17T02:42:24;9.50;;;7.13;;
45564;SDS011;31280;40.408;17.282;2022-10-17T02:44:52;10.48;;;7.32;;
45564;SDS011;31280;40.408;17.282;2022-10-17T02:48:01;11.73;;;6.85;;
45564;SDS011;31280;40.408;17.282;2022-10-17T02:50:15;10.85;;;6.82;;
45564;SDS011;31280;40.408;17.282;2022-10-17T02:57:47;9.98;;;7.05;;
45564;SDS011;31280;40.408;17.282;2022-10-17T03:00:16;9.55;;;7.28;;
45564;SDS011;31280;40.408;17.282;2022-10-17T03:02:57;10.82;;;6.88;;
45564;SDS011;31280;40.408;17.282;2022-10-17T03:12:22;12.65;;;7.45;;
45564;SDS011;31280;40.408;17.282;2022-10-17T03:25:42;9.00;;;6.85;;
45564;SDS011;31280;40.408;17.282;2022-10-17T03:28:39;9.25;;;6.57;;
45564;SDS011;31280;40.408;17.282;2022-10-17T03:31:21;9.80;;;7.20;;
45564;SDS011;31280;40.408;17.282;2022-10-17T03:33:47;11.75;;;7.53;;
45564;SDS011;31280;40.408;17.282;2022-10-17T03:36:14;9.82;;;7.18;;
45564;SDS011;31280;40.408;17.282;2022-10-17T03:38:41;10.05;;;7.05;;
45564;SDS011;31280;40.408;17.282;2022-10-17T03:41:08;12.55;;;7.90;;
45564;SDS011;31280;40.408;17.282;2022-10-17T03:43:34;12.55;;;7.72;;
45564;SDS011;31280;40.408;17.282;2022-10-17T03:46:00;12.25;;;8.15;;
45564;SDS011;31280;40.408;17.282;2022-10-17T03:48:27;11.60;;;7.60;;
45564;SDS011;31280;40.408;17.282;2022-10-17T03:51:00;11.88;;;8.40;;
45564;SDS011;31280;40.408;17.282;2022-10-17T03:53:28;12.23;;;7.88;;
45564;SDS011;31280;40.408;17.282;2022-10-17T03:55:54;15.20;;;8.73;;
45564;SDS011;31280;40.408;17.282;2022-10-17T03:58:20;10.60;;;7.47;;
45564;SDS011;31280;40.408;17.282;2022-10-17T04:00:46;11.65;;;8.60;;
45564;SDS011;31280;40.408;17.282;2022-10-17T04:03:12;12.50;;;8.10;;
45564;SDS011;31280;40.408;17.282;2022-10-17T04:05:38;10.25;;;8.32;;
45564;SDS011;31280;40.408;17.282;2022-10-17T04:08:04;13.13;;;8.68;;
45564;SDS011;31280;40.408;17.282;2022-10-17T04:10:30;14.02;;;8.13;;
45564;SDS011;31280;40.408;17.282;2022-10-17T04:12:56;13.55;;;8.27;;
45564;SDS011;31280;40.408;17.282;2022-10-17T04:15:22;13.55;;;8.05;;
45564;SDS011;31280;40.408;17.282;2022-10-17T04:17:48;12.32;;;7.88;;
45564;SDS011;31280;40.408;17.282;2022-10-17T04:20:13;13.77;;;8.25;;
45564;SDS011;31280;40.408;17.282;2022-10-17T04:22:39;11.65;;;8.23;;
45564;SDS011;31280;40.408;17.282;2022-10-17T04:25:05;13.27;;;7.75;;
45564;SDS011;31280;40.408;17.282;2022-10-17T04:27:31;11.65;;;8.98;;
45564;SDS011;31280;40.408;17.282;2022-10-17T04:29:57;11.00;;;8.55;;
45564;SDS011;31280;40.408;17.282;2022-10-17T04:32:22;11.75;;;8.93;;
45564;SDS011;31280;40.408;17.282;2022-10-17T04:34:50;12.68;;;9.20;;
45564;SDS011;31280;40.408;17.282;2022-10-17T04:37:16;13.43;;;9.15;;
45564;SDS011;31280;40.408;17.282;2022-10-17T04:39:41;14.38;;;9.48;;
45564;SDS011;31280;40.408;17.282;2022-10-17T04:42:07;12.98;;;9.48;;
45564;SDS011;31280;40.408;17.282;2022-10-17T04:44:33;13.73;;;9.90;;
45564;SDS011;31280;40.408;17.282;2022-10-17T04:47:00;11.60;;;9.38;;
45564;SDS011;31280;40.408;17.282;2022-10-17T04:49:25;14.38;;;9.23;;
45564;SDS011;31280;40.408;17.282;2022-10-17T04:51:51;11.98;;;8.85;;
45564;SDS011;31280;40.408;17.282;2022-10-17T04:54:17;15.10;;;9.15;;
45564;SDS011;31280;40.408;17.282;2022-10-17T04:56:43;15.93;;;9.95;;
45564;SDS011;31280;40.408;17.282;2022-10-17T04:59:09;14.75;;;9.18;;
45564;SDS011;31280;40.408;17.282;2022-10-17T05:01:35;14.48;;;9.73;;
45564;SDS011;31280;40.408;17.282;2022-10-17T05:04:01;15.48;;;10.23;;
45564;SDS011;31280;40.408;17.282;2022-10-17T05:06:27;20.40;;;9.55;;
45564;SDS011;31280;40.408;17.282;2022-10-17T05:08:53;19.48;;;10.23;;
45564;SDS011;31280;40.408;17.282;2022-10-17T05:11:20;24.58;;;10.77;;
45564;SDS011;31280;40.408;17.282;2022-10-17T05:13:49;19.63;;;11.70;;
45564;SDS011;31280;40.408;17.282;2022-10-17T05:16:19;23.77;;;12.07;;
45564;SDS011;31280;40.408;17.282;2022-10-17T05:18:49;19.85;;;11.95;;
45564;SDS011;31280;40.408;17.282;2022-10-17T05:21:17;28.80;;;13.32;;
45564;SDS011;31280;40.408;17.282;2022-10-17T05:23:43;22.75;;;12.27;;
45564;SDS011;31280;40.408;17.282;2022-10-17T05:26:10;25.48;;;12.73;;
45564;SDS011;31280;40.408;17.282;2022-10-17T05:28:36;21.50;;;11.95;;
45564;SDS011;31280;40.408;17.282;2022-10-17T05:31:06;21.33;;;11.38;;
45564;SDS011;31280;40.408;17.282;2022-10-17T05:33:33;19.67;;;11.30;;
45564;SDS011;31280;40.408;17.282;2022-10-17T05:35:59;20.38;;;11.05;;
45564;SDS011;31280;40.408;17.282;2022-10-17T05:38:25;16.23;;;10.18;;
45564;SDS011;31280;40.408;17.282;2022-10-17T05:41:01;16.63;;;10.40;;
45564;SDS011;31280;40.408;17.282;2022-10-17T05:43:29;21.20;;;10.63;;
45564;SDS011;31280;40.408;17.282;2022-10-17T05:46:04;19.50;;;10.93;;
45564;SDS011;31280;40.408;17.282;2022-10-17T05:48:44;15.43;;;10.52;;
45564;SDS011;31280;40.408;17.282;2022-10-17T05:52:14;15.63;;;10.38;;
45564;SDS011;31280;40.408;17.282;2022-10-17T06:01:23;19.55;;;10.63;;
45564;SDS011;31280;40.408;17.282;2022-10-17T06:03:49;16.48;;;10.63;;
45564;SDS011;31280;40.408;17.282;2022-10-17T06:06:15;21.92;;;10.38;;
45564;SDS011;31280;40.408;17.282;2022-10-17T06:08:41;14.30;;;9.95;;
45564;SDS011;31280;40.408;17.282;2022-10-17T06:11:08;18.10;;;9.88;;
45564;SDS011;31280;40.408;17.282;2022-10-17T06:13:34;14.57;;;9.95;;
45564;SDS011;31280;40.408;17.282;2022-10-17T06:16:00;19.65;;;10.98;;
45564;SDS011;31280;40.408;17.282;2022-10-17T06:18:26;21.75;;;10.38;;
45564;SDS011;31280;40.408;17.282;2022-10-17T06:20:51;21.67;;;11.18;;
45564;SDS011;31280;40.408;17.282;2022-10-17T06:23:17;23.45;;;11.32;;
45564;SDS011;31280;40.408;17.282;2022-10-17T06:25:43;22.73;;;11.23;;
45564;SDS011;31280;40.408;17.282;2022-10-17T06:28:09;21.52;;;11.55;;
45564;SDS011;31280;40.408;17.282;2022-10-17T06:30:39;18.02;;;10.43;;
45564;SDS011;31280;40.408;17.282;2022-10-17T06:33:06;16.13;;;11.10;;
45564;SDS011;31280;40.408;17.282;2022-10-17T06:35:32;18.60;;;11.45;;
45564;SDS011;31280;40.408;17.282;2022-10-17T06:37:58;18.70;;;12.02;;
45564;SDS011;31280;40.408;17.282;2022-10-17T06:40:24;21.42;;;11.82;;
45564;SDS011;31280;40.408;17.282;2022-10-17T06:42:50;21.30;;;12.75;;
45564;SDS011;31280;40.408;17.282;2022-10-17T06:45:17;26.70;;;13.20;;
45564;SDS011;31280;40.408;17.282;2022-10-17T06:47:43;23.40;;;12.65;;
45564;SDS011;31280;40.408;17.282;2022-10-17T06:50:09;18.20;;;12.57;;
45564;SDS011;31280;40.408;17.282;2022-10-17T06:52:35;19.75;;;12.38;;
45564;SDS011;31280;40.408;17.282;2022-10-17T06:55:01;19.70;;;13.75;;
45564;SDS011;31280;40.408;17.282;2022-10-17T06:57:27;23.30;;;14.63;;
45564;SDS011;31280;40.408;17.282;2022-10-17T06:59:53;22.88;;;13.50;;
45564;SDS011;31280;40.408;17.282;2022-10-17T07:02:20;22.40;;;13.65;;
45564;SDS011;31280;40.408;17.282;2022-10-17T07:04:48;22.42;;;12.85;;
45564;SDS011;31280;40.408;17.282;2022-10-17T07:07:14;23.15;;;14.40;;
45564;SDS011;31280;40.408;17.282;2022-10-17T07:09:40;22.17;;;13.35;;
45564;SDS011;31280;40.408;17.282;2022-10-17T07:12:05;25.45;;;14.27;;
45564;SDS011;31280;40.408;17.282;2022-10-17T07:14:33;21.63;;;13.60;;
45564;SDS011;31280;40.408;17.282;2022-10-17T07:17:00;28.98;;;15.02;;
45564;SDS011;31280;40.408;17.282;2022-10-17T07:19:26;24.92;;;14.05;;
45564;SDS011;31280;40.408;17.282;2022-10-17T07:21:52;27.25;;;16.75;;
45564;SDS011;31280;40.408;17.282;2022-10-17T07:24:19;30.13;;;16.02;;
45564;SDS011;31280;40.408;17.282;2022-10-17T07:26:46;30.35;;;17.40;;
45564;SDS011;31280;40.408;17.282;2022-10-17T07:29:12;30.35;;;16.55;;
45564;SDS011;31280;40.408;17.282;2022-10-17T07:31:38;32.75;;;18.08;;
45564;SDS011;31280;40.408;17.282;2022-10-17T07:34:04;28.48;;;15.75;;
45564;SDS011;31280;40.408;17.282;2022-10-17T07:36:30;27.92;;;16.77;;
45564;SDS011;31280;40.408;17.282;2022-10-17T07:38:57;23.73;;;15.35;;
45564;SDS011;31280;40.408;17.282;2022-10-17T07:41:23;28.70;;;15.38;;
45564;SDS011;31280;40.408;17.282;2022-10-17T07:43:49;23.73;;;15.32;;
45564;SDS011;31280;40.408;17.282;2022-10-17T07:46:15;30.25;;;16.50;;
45564;SDS011;31280;40.408;17.282;2022-10-17T07:48:41;27.10;;;16.42;;
45564;SDS011;31280;40.408;17.282;2022-10-17T07:51:07;27.15;;;15.38;;
45564;SDS011;31280;40.408;17.282;2022-10-17T07:53:37;29.90;;;16.17;;
45564;SDS011;31280;40.408;17.282;2022-10-17T07:56:04;22.13;;;15.10;;
45564;SDS011;31280;40.408;17.282;2022-10-17T07:58:31;26.90;;;15.93;;
45564;SDS011;31280;40.408;17.282;2022-10-17T08:01:01;21.48;;;15.02;;
45564;SDS011;31280;40.408;17.282;2022-10-17T08:03:31;27.13;;;15.57;;
45564;SDS011;31280;40.408;17.282;2022-10-17T08:05:57;22.33;;;15.35;;
45564;SDS011;31280;40.408;17.282;2022-10-17T08:08:25;21.17;;;15.07;;
45564;SDS011;31280;40.408;17.282;2022-10-17T08:10:51;22.30;;;15.20;;
45564;SDS011;31280;40.408;17.282;2022-10-17T08:13:19;25.60;;;14.18;;
45564;SDS011;31280;40.408;17.282;2022-10-17T08:15:46;22.63;;;14.65;;
45564;SDS011;31280;40.408;17.282;2022-10-17T08:18:13;21.77;;;14.00;;
45564;SDS011;31280;40.408;17.282;2022-10-17T08:20:40;23.25;;;14.73;;
45564;SDS011;31280;40.408;17.282;2022-10-17T08:23:06;27.40;;;15.32;;
45564;SDS011;31280;40.408;17.282;2022-10-17T08:25:32;22.52;;;14.73;;
45564;SDS011;31280;40.408;17.282;2022-10-17T08:27:58;24.05;;;14.30;;
45564;SDS011;31280;40.408;17.282;2022-10-17T08:30:24;23.52;;;14.73;;
45564;SDS011;31280;40.408;17.282;2022-10-17T08:32:50;22.30;;;14.73;;
45564;SDS011;31280;40.408;17.282;2022-10-17T08:35:16;20.30;;;14.35;;
45564;SDS011;31280;40.408;17.282;2022-10-17T08:37:42;25.25;;;15.07;;
45564;SDS011;31280;40.408;17.282;2022-10-17T08:40:16;21.52;;;14.95;;
45564;SDS011;31280;40.408;17.282;2022-10-17T08:43:06;20.23;;;14.85;;
45564;SDS011;31280;40.408;17.282;2022-10-17T08:48:28;24.45;;;15.00;;
45564;SDS011;31280;40.408;17.282;2022-10-17T08:50:59;25.35;;;15.38;;
45564;SDS011;31280;40.408;17.282;2022-10-17T08:55:53;27.95;;;15.52;;
45564;SDS011;31280;40.408;17.282;2022-10-17T08:58:28;22.33;;;14.73;;
45564;SDS011;31280;40.408;17.282;2022-10-17T09:06:50;22.92;;;14.27;;
45564;SDS011;31280;40.408;17.282;2022-10-17T09:20:08;20.48;;;14.27;;
45564;SDS011;31280;40.408;17.282;2022-10-17T09:22:55;20.27;;;14.43;;
45564;SDS011;31280;40.408;17.282;2022-10-17T09:25:24;20.90;;;14.60;;
45564;SDS011;31280;40.408;17.282;2022-10-17T09:30:41;26.08;;;15.95;;
45564;SDS011;31280;40.408;17.282;2022-10-17T09:33:08;23.83;;;13.98;;
45564;SDS011;31280;40.408;17.282;2022-10-17T09:35:36;23.65;;;15.27;;
45564;SDS011;31280;40.408;17.282;2022-10-17T09:38:03;19.55;;;14.15;;
45564;SDS011;31280;40.408;17.282;2022-10-17T09:40:33;22.83;;;13.88;;
45564;SDS011;31280;40.408;17.282;2022-10-17T09:43:02;25.02;;;15.10;;
45564;SDS011;31280;40.408;17.282;2022-10-17T09:45:31;21.02;;;14.20;;
45564;SDS011;31280;40.408;17.282;2022-10-17T09:48:23;19.88;;;13.93;;
45564;SDS011;31280;40.408;17.282;2022-10-17T09:50:52;22.40;;;14.60;;
45564;SDS011;31280;40.408;17.282;2022-10-17T09:53:32;20.92;;;14.63;;
45564;SDS011;31280;40.408;17.282;2022-10-17T09:56:02;21.58;;;14.52;;
45564;SDS011;31280;40.408;17.282;2022-10-17T09:58:47;24.50;;;15.48;;
45564;SDS011;31280;40.408;17.282;2022-10-17T10:03:43;18.55;;;13.90;;
45564;SDS011;31280;40.408;17.282;2022-10-17T10:08:48;25.88;;;15.75;;
45564;SDS011;31280;40.408;17.282;2022-10-17T10:11:14;21.52;;;14.65;;
45564;SDS011;31280;40.408;17.282;2022-10-17T10:13:42;21.88;;;15.13;;
45564;SDS011;31280;40.408;17.282;2022-10-17T10:16:51;22.42;;;15.40;;
45564;SDS011;31280;40.408;17.282;2022-10-17T10:18:57;21.85;;;14.60;;
45564;SDS011;31280;40.408;17.282;2022-10-17T10:21:24;19.80;;;13.07;;
45564;SDS011;31280;40.408;17.282;2022-10-17T10:24:12;23.42;;;15.40;;
45564;SDS011;31280;40.408;17.282;2022-10-17T10:26:39;23.45;;;14.30;;
45564;SDS011;31280;40.408;17.282;2022-10-17T10:32:15;19.75;;;13.48;;
45564;SDS011;31280;40.408;17.282;2022-10-17T10:34:48;21.83;;;14.98;;
45564;SDS011;31280;40.408;17.282;2022-10-17T10:39:48;23.10;;;14.98;;
45564;SDS011;31280;40.408;17.282;2022-10-17T10:45:18;22.45;;;13.98;;
45564;SDS011;31280;40.408;17.282;2022-10-17T10:48:17;22.52;;;15.07;;
45564;SDS011;31280;40.408;17.282;2022-10-17T10:51:04;22.38;;;13.90;;
45564;SDS011;31280;40.408;17.282;2022-10-17T10:53:47;21.38;;;13.48;;
45564;SDS011;31280;40.408;17.282;2022-10-17T10:56:22;19.50;;;14.93;;
45564;SDS011;31280;40.408;17.282;2022-10-17T11:08:05;19.00;;;14.15;;
45564;SDS011;31280;40.408;17.282;2022-10-17T11:13:31;21.33;;;13.15;;
45564;SDS011;31280;40.408;17.282;2022-10-17T11:18:44;18.52;;;13.50;;
45564;SDS011;31280;40.408;17.282;2022-10-17T11:21:20;17.92;;;13.05;;
45564;SDS011;31280;40.408;17.282;2022-10-17T11:24:14;19.67;;;12.95;;
45564;SDS011;31280;40.408;17.282;2022-10-17T11:26:43;20.45;;;14.55;;
45564;SDS011;31280;40.408;17.282;2022-10-17T11:29:13;19.08;;;12.68;;
45564;SDS011;31280;40.408;17.282;2022-10-17T11:31:46;18.42;;;12.45;;
45564;SDS011;31280;40.408;17.282;2022-10-17T11:37:25;22.80;;;14.00;;
45564;SDS011;31280;40.408;17.282;2022-10-17T11:42:47;19.27;;;12.73;;
45564;SDS011;31280;40.408;17.282;2022-10-17T11:45:22;19.38;;;13.52;;
45564;SDS011;31280;40.408;17.282;2022-10-17T11:47:57;17.63;;;12.65;;
45564;SDS011;31280;40.408;17.282;2022-10-17T11:50:34;19.10;;;12.65;;
45564;SDS011;31280;40.408;17.282;2022-10-17T11:55:48;20.60;;;13.73;;
45564;SDS011;31280;40.408;17.282;2022-10-17T12:03:56;18.15;;;10.98;;
45564;SDS011;31280;40.408;17.282;2022-10-17T12:06:47;16.20;;;11.73;;
45564;SDS011;31280;40.408;17.282;2022-10-17T12:09:51;18.95;;;11.68;;
45564;SDS011;31280;40.408;17.282;2022-10-17T12:12:23;18.23;;;13.07;;
45564;SDS011;31280;40.408;17.282;2022-10-17T12:15:25;20.75;;;13.38;;
45564;SDS011;31280;40.408;17.282;2022-10-17T12:17:59;18.02;;;13.48;;
45564;SDS011;31280;40.408;17.282;2022-10-17T12:25:37;18.23;;;12.43;;
45564;SDS011;31280;40.408;17.282;2022-10-17T12:31:24;19.00;;;13.38;;
45564;SDS011;31280;40.408;17.282;2022-10-17T12:33:51;17.83;;;13.60;;
45564;SDS011;31280;40.408;17.282;2022-10-17T12:38:50;17.67;;;12.15;;
45564;SDS011;31280;40.408;17.282;2022-10-17T12:52:18;21.05;;;11.90;;
45564;SDS011;31280;40.408;17.282;2022-10-17T12:57:23;16.92;;;11.63;;
45564;SDS011;31280;40.408;17.282;2022-10-17T12:59:55;18.77;;;12.57;;
45564;SDS011;31280;40.408;17.282;2022-10-17T13:02:22;16.25;;;12.90;;
45564;SDS011;31280;40.408;17.282;2022-10-17T13:04:55;15.82;;;11.50;;
45564;SDS011;31280;40.408;17.282;2022-10-17T13:07:34;19.38;;;12.93;;
45564;SDS011;31280;40.408;17.282;2022-10-17T13:10:00;16.88;;;11.65;;
45564;SDS011;31280;40.408;17.282;2022-10-17T13:12:29;14.18;;;11.60;;
45564;SDS011;31280;40.408;17.282;2022-10-17T13:14:59;15.60;;;11.43;;
45564;SDS011;31280;40.408;17.282;2022-10-17T13:17:29;19.05;;;11.88;;
45564;SDS011;31280;40.408;17.282;2022-10-17T13:19:56;18.58;;;12.15;;
45564;SDS011;31280;40.408;17.282;2022-10-17T13:22:23;17.13;;;11.68;;
45564;SDS011;31280;40.408;17.282;2022-10-17T13:24:51;15.43;;;10.95;;
45564;SDS011;31280;40.408;17.282;2022-10-17T13:27:31;16.95;;;11.65;;
45564;SDS011;31280;40.408;17.282;2022-10-17T13:30:00;15.38;;;11.50;;
45564;SDS011;31280;40.408;17.282;2022-10-17T13:32:45;13.30;;;10.48;;
45564;SDS011;31280;40.408;17.282;2022-10-17T13:35:12;14.75;;;11.93;;
45564;SDS011;31280;40.408;17.282;2022-10-17T13:37:42;12.52;;;10.57;;
45564;SDS011;31280;40.408;17.282;2022-10-17T13:40:15;14.93;;;11.07;;
45564;SDS011;31280;40.408;17.282;2022-10-17T13:42:41;14.63;;;10.45;;
45564;SDS011;31280;40.408;17.282;2022-10-17T13:45:29;14.40;;;11.25;;
45564;SDS011;31280;40.408;17.282;2022-10-17T13:48:01;12.68;;;10.65;;
45564;SDS011;31280;40.408;17.282;2022-10-17T13:50:33;15.98;;;12.20;;
45564;SDS011;31280;40.408;17.282;2022-10-17T13:58:28;14.95;;;10.75;;
45564;SDS011;31280;40.408;17.282;2022-10-17T14:01:04;18.83;;;10.93;;
45564;SDS011;31280;40.408;17.282;2022-10-17T14:03:30;14.48;;;10.35;;
45564;SDS011;31280;40.408;17.282;2022-10-17T14:06:06;15.25;;;10.82;;
45564;SDS011;31280;40.408;17.282;2022-10-17T14:08:50;15.70;;;11.70;;
45564;SDS011;31280;40.408;17.282;2022-10-17T14:11:32;14.38;;;11.93;;
45564;SDS011;31280;40.408;17.282;2022-10-17T14:14:00;17.55;;;11.88;;
45564;SDS011;31280;40.408;17.282;2022-10-17T14:16:41;15.73;;;10.80;;
45564;SDS011;31280;40.408;17.282;2022-10-17T14:21:55;13.38;;;10.18;;
45564;SDS011;31280;40.408;17.282;2022-10-17T14:24:38;16.50;;;10.38;;
45564;SDS011;31280;40.408;17.282;2022-10-17T14:27:28;16.08;;;11.70;;
45564;SDS011;31280;40.408;17.282;2022-10-17T14:29:55;14.48;;;9.98;;
45564;SDS011;31280;40.408;17.282;2022-10-17T14:32:28;23.48;;;10.50;;
45564;SDS011;31280;40.408;17.282;2022-10-17T14:34:55;14.52;;;10.18;;
45564;SDS011;31280;40.408;17.282;2022-10-17T14:37:29;13.32;;;10.23;;
45564;SDS011;31280;40.408;17.282;2022-10-17T14:39:59;15.68;;;10.27;;
45564;SDS011;31280;40.408;17.282;2022-10-17T14:42:27;15.15;;;9.85;;
45564;SDS011;31280;40.408;17.282;2022-10-17T14:44:53;13.50;;;10.18;;
45564;SDS011;31280;40.408;17.282;2022-10-17T14:47:27;16.85;;;10.82;;
45564;SDS011;31280;40.408;17.282;2022-10-17T14:50:04;19.10;;;10.85;;
45564;SDS011;31280;40.408;17.282;2022-10-17T14:52:50;14.23;;;10.40;;
45564;SDS011;31280;40.408;17.282;2022-10-17T14:55:28;14.27;;;10.75;;
45564;SDS011;31280;40.408;17.282;2022-10-17T14:57:56;14.57;;;10.07;;
45564;SDS011;31280;40.408;17.282;2022-10-17T15:00:22;13.25;;;10.35;;
45564;SDS011;31280;40.408;17.282;2022-10-17T15:02:49;15.65;;;10.93;;
45564;SDS011;31280;40.408;17.282;2022-10-17T15:05:16;18.25;;;11.13;;
45564;SDS011;31280;40.408;17.282;2022-10-17T15:07:42;19.48;;;10.90;;
45564;SDS011;31280;40.408;17.282;2022-10-17T15:10:30;14.65;;;10.77;;
45564;SDS011;31280;40.408;17.282;2022-10-17T15:13:00;18.67;;;11.05;;
45564;SDS011;31280;40.408;17.282;2022-10-17T15:15:27;13.80;;;10.57;;
45564;SDS011;31280;40.408;17.282;2022-10-17T15:17:53;18.10;;;11.13;;
45564;SDS011;31280;40.408;17.282;2022-10-17T15:20:19;18.80;;;10.43;;
45564;SDS011;31280;40.408;17.282;2022-10-17T15:22:51;13.75;;;10.38;;
45564;SDS011;31280;40.408;17.282;2022-10-17T15:25:17;14.88;;;10.85;;
45564;SDS011;31280;40.408;17.282;2022-10-17T15:27:44;20.55;;;10.68;;
45564;SDS011;31280;40.408;17.282;2022-10-17T15:30:28;20.08;;;11.20;;
45564;SDS011;31280;40.408;17.282;2022-10-17T15:32:59;15.40;;;11.32;;
45564;SDS011;31280;40.408;17.282;2022-10-17T15:35:25;21.30;;;11.40;;
45564;SDS011;31280;40.408;17.282;2022-10-17T15:37:52;16.27;;;11.18;;
45564;SDS011;31280;40.408;17.282;2022-10-17T15:40:20;14.38;;;10.40;;
45564;SDS011;31280;40.408;17.282;2022-10-17T15:42:48;21.83;;;10.90;;
45564;SDS011;31280;40.408;17.282;2022-10-17T15:45:15;17.08;;;11.68;;
45564;SDS011;31280;40.408;17.282;2022-10-17T15:47:43;19.58;;;11.35;;
45564;SDS011;31280;40.408;17.282;2022-10-17T15:50:14;16.38;;;10.60;;
45564;SDS011;31280;40.408;17.282;2022-10-17T15:52:41;17.15;;;11.63;;
45564;SDS011;31280;40.408;17.282;2022-10-17T15:55:08;16.30;;;11.32;;
45564;SDS011;31280;40.408;17.282;2022-10-17T15:57:39;16.08;;;11.55;;
45564;SDS011;31280;40.408;17.282;2022-10-17T16:00:07;20.58;;;12.55;;
45564;SDS011;31280;40.408;17.282;2022-10-17T16:02:40;16.65;;;11.95;;
45564;SDS011;31280;40.408;17.282;2022-10-17T16:05:17;19.83;;;12.85;;
45564;SDS011;31280;40.408;17.282;2022-10-17T16:07:47;19.63;;;11.85;;
45564;SDS011;31280;40.408;17.282;2022-10-17T16:10:14;17.33;;;12.85;;
45564;SDS011;31280;40.408;17.282;2022-10-17T16:12:41;24.92;;;13.35;;
45564;SDS011;31280;40.408;17.282;2022-10-17T16:15:18;18.60;;;12.73;;
45564;SDS011;31280;40.408;17.282;2022-10-17T16:17:48;18.58;;;12.52;;
45564;SDS011;31280;40.408;17.282;2022-10-17T16:20:14;19.48;;;14.15;;
45564;SDS011;31280;40.408;17.282;2022-10-17T16:22:41;24.05;;;15.05;;
45564;SDS011;31280;40.408;17.282;2022-10-17T16:25:18;20.58;;;15.18;;
45564;SDS011;31280;40.408;17.282;2022-10-17T16:27:46;22.42;;;15.63;;
45564;SDS011;31280;40.408;17.282;2022-10-17T16:30:13;23.17;;;15.85;;
45564;SDS011;31280;40.408;17.282;2022-10-17T16:32:40;23.92;;;15.82;;
45564;SDS011;31280;40.408;17.282;2022-10-17T16:35:06;21.45;;;15.73;;
45564;SDS011;31280;40.408;17.282;2022-10-17T16:37:32;23.17;;;16.15;;
45564;SDS011;31280;40.408;17.282;2022-10-17T16:40:00;21.75;;;14.90;;
45564;SDS011;31280;40.408;17.282;2022-10-17T16:42:26;27.20;;;17.50;;
45564;SDS011;31280;40.408;17.282;2022-10-17T16:44:52;24.67;;;16.55;;
45564;SDS011;31280;40.408;17.282;2022-10-17T16:47:18;24.25;;;16.15;;
45564;SDS011;31280;40.408;17.282;2022-10-17T16:49:44;28.80;;;17.25;;
45564;SDS011;31280;40.408;17.282;2022-10-17T16:52:10;30.50;;;18.70;;
45564;SDS011;31280;40.408;17.282;2022-10-17T16:54:36;28.23;;;18.13;;
45564;SDS011;31280;40.408;17.282;2022-10-17T16:57:02;28.48;;;19.02;;
45564;SDS011;31280;40.408;17.282;2022-10-17T16:59:28;28.70;;;20.13;;
45564;SDS011;31280;40.408;17.282;2022-10-17T17:01:54;28.75;;;18.80;;
45564;SDS011;31280;40.408;17.282;2022-10-17T17:04:20;31.23;;;19.15;;
45564;SDS011;31280;40.408;17.282;2022-10-17T17:06:46;33.92;;;19.80;;
45564;SDS011;31280;40.408;17.282;2022-10-17T17:09:12;25.63;;;18.38;;
45564;SDS011;31280;40.408;17.282;2022-10-17T17:11:38;28.45;;;18.35;;
45564;SDS011;31280;40.408;17.282;2022-10-17T17:14:04;27.40;;;18.58;;
45564;SDS011;31280;40.408;17.282;2022-10-17T17:16:31;26.70;;;18.42;;
45564;SDS011;31280;40.408;17.282;2022-10-17T17:18:59;33.33;;;19.30;;
45564;SDS011;31280;40.408;17.282;2022-10-17T17:21:26;24.83;;;18.27;;
45564;SDS011;31280;40.408;17.282;2022-10-17T17:23:52;28.77;;;19.35;;
45564;SDS011;31280;40.408;17.282;2022-10-17T17:26:21;27.05;;;18.10;;
45564;SDS011;31280;40.408;17.282;2022-10-17T17:28:47;28.02;;;19.00;;
45564;SDS011;31280;40.408;17.282;2022-10-17T17:31:20;25.67;;;17.67;;